Time;durP1;ratioP1;P1;durP2;ratioP2;P2;SDS_P1;SDS_P2;PMS_P1;PMS_P2;Temp;Humidity;BMP_temperature;BMP_pressure;BME280_temperature;BME280_humidity;BME280_pressure;Samples;Min_cycle;Max_cycle;Signal;HPM_P1;HPM_P2
2021/05/15 00:02:22;;;;;;;53.08;23.67;;;;;;;9.32;100.00;100757.13;5226704;28;20025;-86
2021/05/15 00:04:53;;;;;;;50.38;21.23;;;;;;;9.26;100.00;100757.78;5226744;28;20103;-86
2021/05/15 00:07:24;;;;;;;62.35;24.60;;;;;;;9.27;100.00;100754.09;5226617;28;20020;-86
2021/05/15 00:09:54;;;;;;;52.00;21.77;;;;;;;9.28;100.00;100760.28;5226550;28;20108;-86
2021/05/15 00:12:25;;;;;;;55.88;21.42;;;;;;;9.30;100.00;100751.09;5226986;28;20033;-86
2021/05/15 00:14:56;;;;;;;52.85;21.75;;;;;;;9.25;100.00;100741.88;5226225;28;20033;-86
2021/05/15 00:17:27;;;;;;;49.97;21.08;;;;;;;9.28;100.00;100744.22;5226634;28;20032;-86
2021/05/15 00:19:57;;;;;;;55.35;22.45;;;;;;;9.27;100.00;100737.19;5226220;28;20388;-86
2021/05/15 00:22:28;;;;;;;53.75;20.92;;;;;;;9.28;100.00;100733.50;5226497;28;20025;-86
2021/05/15 00:24:58;;;;;;;46.20;19.98;;;;;;;9.23;100.00;100730.47;5226353;28;20403;-86
2021/05/15 00:27:29;;;;;;;51.33;22.42;;;;;;;9.22;100.00;100724.28;5225941;28;20079;-86
2021/05/15 00:29:59;;;;;;;54.88;21.60;;;;;;;9.20;100.00;100720.13;5225889;28;20048;-86
2021/05/15 00:32:30;;;;;;;46.85;20.40;;;;;;;9.36;100.00;100712.16;5226353;28;20594;-86
2021/05/15 00:35:00;;;;;;;51.00;21.85;;;;;;;9.33;100.00;100707.09;5225879;28;20021;-86
2021/05/15 00:37:31;;;;;;;47.80;20.88;;;;;;;9.29;100.00;100705.78;5225794;28;20425;-86
2021/05/15 00:40:04;;;;;;;50.25;21.88;;;;;;;9.33;100.00;100704.41;5225536;28;20032;-86
2021/05/15 00:42:35;;;;;;;44.50;21.13;;;;;;;9.29;100.00;100695.06;5226028;28;20064;-86
2021/05/15 00:45:09;;;;;;;50.35;20.02;;;;;;;9.19;100.00;100691.69;5224737;28;20520;-86
2021/05/15 00:47:40;;;;;;;58.53;22.27;;;;;;;9.13;100.00;100692.28;5224947;28;20013;-86
2021/05/15 00:50:11;;;;;;;56.55;22.13;;;;;;;9.03;100.00;100685.22;5225002;28;20025;-86
2021/05/15 00:52:42;;;;;;;55.03;23.02;;;;;;;8.97;100.00;100690.38;5225762;28;20032;-86
2021/05/15 00:55:13;;;;;;;62.80;25.90;;;;;;;8.93;100.00;100686.34;5225860;28;20036;-86
2021/05/15 00:57:44;;;;;;;56.65;24.00;;;;;;;8.91;100.00;100691.03;5219466;28;20031;-86
2021/05/15 01:00:15;;;;;;;57.50;22.30;;;;;;;8.89;100.00;100698.38;5224149;28;20492;-87
2021/05/15 01:02:46;;;;;;;71.55;25.63;;;;;;;8.88;100.00;100694.00;5225451;28;20419;-86
2021/05/15 01:05:18;;;;;;;60.50;23.60;;;;;;;8.85;100.00;100695.19;5225792;28;20029;-86
2021/05/15 01:07:49;;;;;;;61.50;23.88;;;;;;;8.89;100.00;100701.06;5224948;28;20032;-86
2021/05/15 01:10:20;;;;;;;68.03;25.48;;;;;;;8.85;100.00;100687.16;5225521;28;20412;-86
2021/05/15 01:12:54;;;;;;;53.35;22.90;;;;;;;8.86;100.00;100686.16;5225737;28;20033;-86
2021/05/15 01:15:27;;;;;;;55.28;22.50;;;;;;;8.83;100.00;100691.81;5225413;28;20113;-86
2021/05/15 01:17:58;;;;;;;65.13;23.92;;;;;;;8.79;100.00;100682.44;5225736;28;20067;-86
2021/05/15 01:20:41;;;;;;;70.00;24.63;;;;;;;8.80;100.00;100689.47;5225408;28;20033;-86
2021/05/15 01:23:25;;;;;;;57.97;22.92;;;;;;;8.83;100.00;100689.13;5225179;28;20054;-86
2021/05/15 01:26:20;;;;;;;59.83;23.58;;;;;;;8.84;100.00;100688.16;5225652;28;20154;-89
2021/05/15 01:28:53;;;;;;;64.65;23.77;;;;;;;8.82;100.00;100684.78;5225892;28;20052;-87
2021/05/15 01:31:24;;;;;;;57.45;22.55;;;;;;;8.81;100.00;100685.78;5225671;28;20025;-86
2021/05/15 01:33:55;;;;;;;62.65;21.42;;;;;;;8.80;100.00;100686.78;5225012;28;20040;-87
2021/05/15 01:36:27;;;;;;;61.95;22.95;;;;;;;8.82;100.00;100684.78;5225880;28;20036;-86
2021/05/15 01:38:58;;;;;;;63.97;24.58;;;;;;;8.83;100.00;100689.13;5226314;28;20025;-86
2021/05/15 01:41:29;;;;;;;76.57;24.88;;;;;;;8.85;100.00;100689.84;5226087;28;20100;-86
2021/05/15 01:43:59;;;;;;;72.40;24.52;;;;;;;8.88;100.00;100689.50;5226059;28;20598;-86
2021/05/15 01:46:35;;;;;;;76.88;25.40;;;;;;;8.84;100.00;100685.50;5225899;28;20045;-87
2021/05/15 01:49:06;;;;;;;63.47;23.02;;;;;;;8.92;100.00;100692.69;5226381;28;20101;-86
2021/05/15 01:51:45;;;;;;;70.97;25.02;;;;;;;8.92;100.00;100684.66;5217825;28;20025;-86
2021/05/15 01:54:16;;;;;;;76.47;25.77;;;;;;;8.92;100.00;100685.50;5225079;28;20123;-86
2021/05/15 01:56:47;;;;;;;56.80;23.30;;;;;;;8.93;100.00;100678.31;5226012;28;20032;-86
2021/05/15 01:59:17;;;;;;;75.30;27.30;;;;;;;8.94;100.00;100672.00;5226052;28;20451;-86
2021/05/15 02:01:48;;;;;;;78.13;27.42;;;;;;;8.94;100.00;100678.19;5226383;28;20020;-86
2021/05/15 02:04:19;;;;;;;76.32;28.10;;;;;;;8.94;100.00;100675.50;5225630;28;20043;-86
2021/05/15 02:06:49;;;;;;;70.38;26.35;;;;;;;8.95;100.00;100671.81;5225919;28;20490;-87
2021/05/15 02:09:20;;;;;;;60.13;22.55;;;;;;;8.92;100.00;100674.81;5225477;28;20024;-87
2021/05/15 02:11:51;;;;;;;68.75;23.15;;;;;;;8.93;100.00;100676.47;5223415;28;20031;-87
2021/05/15 02:14:21;;;;;;;65.85;24.92;;;;;;;8.91;100.00;100673.13;5224058;28;20032;-86
2021/05/15 02:16:52;;;;;;;68.80;25.33;;;;;;;8.87;100.00;100666.41;5225341;28;20025;-86
2021/05/15 02:19:22;;;;;;;63.85;23.95;;;;;;;8.88;100.00;100668.09;5225671;28;20090;-86
2021/05/15 02:21:53;;;;;;;64.18;24.00;;;;;;;8.89;100.00;100663.59;5224019;28;20522;-88
2021/05/15 02:24:24;;;;;;;60.85;23.52;;;;;;;8.82;100.00;100668.72;5225542;28;20456;-86
2021/05/15 02:26:54;;;;;;;63.33;23.00;;;;;;;8.79;100.00;100655.69;5225678;28;20127;-86
2021/05/15 02:29:25;;;;;;;56.83;21.50;;;;;;;8.80;100.00;100665.41;5225862;28;20029;-86
2021/05/15 02:31:55;;;;;;;59.53;21.75;;;;;;;8.79;100.00;100659.22;5226004;28;20025;-87
2021/05/15 02:34:26;;;;;;;62.63;21.33;;;;;;;8.80;100.00;100660.88;5225124;28;20158;-86
2021/05/15 02:36:56;;;;;;;52.20;22.65;;;;;;;8.82;100.00;100650.00;5224378;28;20408;-86
2021/05/15 02:39:27;;;;;;;55.80;22.30;;;;;;;8.81;100.00;100646.50;5225528;28;20108;-86
2021/05/15 02:41:57;;;;;;;59.38;22.30;;;;;;;8.80;100.00;100652.03;5225581;28;20060;-86
2021/05/15 02:44:28;;;;;;;63.10;22.77;;;;;;;8.74;100.00;100647.31;5225347;28;20029;-87
2021/05/15 02:46:58;;;;;;;57.85;22.67;;;;;;;8.73;100.00;100642.94;5224904;28;20028;-86
2021/05/15 02:49:29;;;;;;;51.08;21.52;;;;;;;8.76;100.00;100646.16;5224770;28;20036;-86
2021/05/15 02:51:59;;;;;;;62.55;21.67;;;;;;;8.67;100.00;100636.38;5224861;28;20044;-86
2021/05/15 02:54:30;;;;;;;58.95;22.92;;;;;;;8.65;100.00;100640.25;5225111;28;20480;-89
2021/05/15 02:57:00;;;;;;;56.00;21.83;;;;;;;8.59;100.00;100625.66;5224903;28;20074;-86
2021/05/15 02:59:31;;;;;;;59.85;21.67;;;;;;;8.57;100.00;100627.66;5224822;28;20029;-86
2021/05/15 03:02:02;;;;;;;56.05;21.85;;;;;;;8.53;100.00;100623.59;5224822;28;20024;-86
2021/05/15 03:04:33;;;;;;;53.45;21.40;;;;;;;8.51;100.00;100631.78;5224665;28;20392;-86
2021/05/15 03:07:03;;;;;;;54.20;21.02;;;;;;;8.47;100.00;100627.75;5224529;28;20044;-86
2021/05/15 03:09:34;;;;;;;65.55;23.95;;;;;;;8.40;100.00;100637.41;5224599;28;20068;-89
2021/05/15 03:12:04;;;;;;;59.83;21.33;;;;;;;8.38;100.00;100633.22;5224700;28;20033;-86
2021/05/15 03:14:36;;;;;;;57.08;22.60;;;;;;;8.31;100.00;100630.31;5224620;28;20124;-86
2021/05/15 03:17:08;;;;;;;58.78;22.50;;;;;;;8.25;100.00;100629.09;5224857;28;20021;-86
2021/05/15 03:19:38;;;;;;;63.38;23.88;;;;;;;8.23;100.00;100624.88;5224476;28;20025;-87
2021/05/15 03:22:09;;;;;;;62.35;23.60;;;;;;;8.17;100.00;100629.03;5226045;28;20507;-86
2021/05/15 03:24:39;;;;;;;62.88;22.17;;;;;;;8.08;100.00;100621.09;5228224;28;20096;-86
2021/05/15 03:27:10;;;;;;;65.32;23.05;;;;;;;7.98;100.00;100623.88;5228522;28;20067;-88
2021/05/15 03:29:41;;;;;;;76.15;25.38;;;;;;;7.86;100.00;100615.25;5230830;28;20028;-87
2021/05/15 03:32:13;;;;;;;62.85;23.98;;;;;;;7.84;100.00;100622.59;5231868;28;20502;-86
2021/05/15 03:34:44;;;;;;;67.88;22.42;;;;;;;7.86;100.00;100617.94;5231339;28;20052;-86
2021/05/15 03:37:14;;;;;;;72.47;24.73;;;;;;;7.83;100.00;100620.06;5232668;28;20033;-86
2021/05/15 03:39:45;;;;;;;76.93;26.15;;;;;;;7.90;100.00;100627.31;5232742;28;20025;-88
2021/05/15 03:42:15;;;;;;;74.10;25.13;;;;;;;7.92;100.00;100628.00;5232613;28;20028;-86
2021/05/15 03:44:46;;;;;;;79.28;25.95;;;;;;;7.97;100.00;100635.53;5232619;28;20024;-86
2021/05/15 03:47:17;;;;;;;77.72;26.73;;;;;;;8.00;100.00;100628.06;5231550;28;20028;-89
2021/05/15 03:49:47;;;;;;;73.32;24.58;;;;;;;8.05;100.00;100628.44;5231797;28;20021;-86
2021/05/15 03:52:18;;;;;;;72.72;23.75;;;;;;;8.12;100.00;100623.31;5231778;28;20036;-86
2021/05/15 03:54:48;;;;;;;71.15;24.67;;;;;;;8.14;100.00;100621.34;5230710;28;20039;-88
2021/05/15 03:57:18;;;;;;;81.10;27.08;;;;;;;8.16;100.00;100621.19;5231386;28;20113;-86
2021/05/15 03:59:49;;;;;;;75.13;25.17;;;;;;;8.16;100.00;100613.16;5232355;28;20486;-88
2021/05/15 04:02:23;;;;;;;77.68;26.17;;;;;;;8.13;100.00;100602.78;5231744;28;20021;-86
2021/05/15 04:04:53;;;;;;;76.03;24.70;;;;;;;8.16;100.00;100608.66;5230483;28;20064;-87
2021/05/15 04:07:24;;;;;;;69.40;24.73;;;;;;;8.19;100.00;100604.84;5232076;28;20108;-86
2021/05/15 04:09:54;;;;;;;74.22;24.35;;;;;;;8.17;100.00;100606.81;5231850;28;20067;-86
2021/05/15 04:12:30;;;;;;;72.80;26.00;;;;;;;8.20;100.00;100607.34;5232154;28;20044;-86
2021/05/15 04:15:05;;;;;;;63.20;23.08;;;;;;;8.22;100.00;100607.19;5231752;28;20033;-86
2021/05/15 04:17:35;;;;;;;72.57;24.95;;;;;;;8.26;100.00;100597.84;5232276;28;20476;-86
2021/05/15 04:20:06;;;;;;;76.72;25.73;;;;;;;8.30;100.00;100599.22;5231710;28;20020;-87
2021/05/15 04:22:37;;;;;;;68.40;24.17;;;;;;;8.34;100.00;100592.56;5229387;28;20029;-86
2021/05/15 04:25:08;;;;;;;77.20;24.60;;;;;;;8.36;100.00;100590.59;5229552;28;20024;-87
2021/05/15 04:27:38;;;;;;;74.47;24.75;;;;;;;8.41;100.00;100598.97;5229000;28;20108;-86
2021/05/15 04:30:10;;;;;;;66.72;23.30;;;;;;;8.42;100.00;100589.97;5228608;28;20423;-86
2021/05/15 04:32:41;;;;;;;65.25;23.98;;;;;;;8.46;100.00;100580.63;5227950;28;20489;-86
2021/05/15 04:35:11;;;;;;;68.65;25.70;;;;;;;8.51;100.00;100589.00;5226973;28;20064;-86
2021/05/15 04:37:43;;;;;;;69.03;24.20;;;;;;;8.51;100.00;100590.84;5227933;28;20044;-87
2021/05/15 04:40:14;;;;;;;69.70;23.50;;;;;;;8.50;100.00;100581.16;5207366;28;20040;-86
2021/05/15 04:42:44;;;;;;;64.82;23.90;;;;;;;8.54;100.00;100578.00;5221796;28;20024;-87
2021/05/15 04:45:15;;;;;;;63.53;24.15;;;;;;;8.64;100.00;100577.06;5227743;28;20025;-86
2021/05/15 04:47:45;;;;;;;61.35;23.20;;;;;;;8.59;100.00;100580.22;5226426;28;20491;-87
2021/05/15 04:50:16;;;;;;;57.78;22.27;;;;;;;8.69;100.00;100575.56;5226227;28;20103;-89
2021/05/15 04:52:47;;;;;;;52.22;21.27;;;;;;;8.75;100.00;100569.56;5226537;28;20025;-88
2021/05/15 04:55:18;;;;;;;58.85;21.80;;;;;;;8.80;100.00;100577.13;5227284;28;20025;-87
2021/05/15 04:57:48;;;;;;;52.85;21.40;;;;;;;8.86;100.00;100565.78;5227619;28;20071;-87
2021/05/15 05:00:19;;;;;;;58.83;23.27;;;;;;;9.07;100.00;100560.81;5227233;28;20052;-86
2021/05/15 05:02:50;;;;;;;50.13;22.17;;;;;;;9.41;100.00;100570.59;5227580;28;20107;-86
2021/05/15 05:05:21;;;;;;;50.30;21.33;;;;;;;9.44;100.00;100562.25;5227034;28;20039;-86
2021/05/15 05:07:52;;;;;;;47.42;19.88;;;;;;;9.60;100.00;100553.38;5226981;28;20499;-86
2021/05/15 05:10:22;;;;;;;53.20;20.30;;;;;;;9.78;100.00;100555.88;5226248;28;20112;-89
2021/05/15 05:12:53;;;;;;;52.97;21.10;;;;;;;9.86;100.00;100559.38;5226169;28;20385;-85
2021/05/15 05:15:23;;;;;;;45.55;19.60;;;;;;;9.92;100.00;100565.91;5229712;28;20031;-85
2021/05/15 05:17:54;;;;;;;45.10;21.23;;;;;;;9.97;100.00;100563.56;5226819;28;20108;-85
2021/05/15 05:20:24;;;;;;;50.22;20.15;;;;;;;10.02;100.00;100569.25;5227136;28;20054;-84
2021/05/15 05:22:55;;;;;;;43.38;20.10;;;;;;;9.95;100.00;100564.75;5228012;28;20239;-87
2021/05/15 05:25:25;;;;;;;51.17;20.77;;;;;;;9.93;100.00;100572.94;5227584;28;20437;-85
2021/05/15 05:27:56;;;;;;;44.95;20.48;;;;;;;10.07;100.00;100561.53;5228370;28;20020;-85
2021/05/15 05:30:27;;;;;;;41.03;17.90;;;;;;;10.42;100.00;100583.63;5228422;28;20028;-89
2021/05/15 05:32:59;;;;;;;48.65;21.02;;;;;;;10.43;100.00;100577.25;5228379;28;20491;-84
2021/05/15 05:35:34;;;;;;;51.58;22.60;;;;;;;10.26;100.00;100570.25;5227548;28;20046;-86
2021/05/15 05:38:04;;;;;;;46.85;22.70;;;;;;;10.16;100.00;100564.22;5226852;28;20033;-85
2021/05/15 05:40:35;;;;;;;53.15;21.42;;;;;;;10.15;100.00;100567.91;5226909;28;20013;-86
2021/05/15 05:43:05;;;;;;;51.95;21.73;;;;;;;10.27;100.00;100572.75;5226451;28;20039;-86
2021/05/15 05:45:36;;;;;;;47.42;20.80;;;;;;;10.29;100.00;100578.81;5234148;28;20025;-87
2021/05/15 05:48:06;;;;;;;54.58;21.30;;;;;;;10.30;100.00;100567.06;5227158;28;20044;-85
2021/05/15 05:50:37;;;;;;;50.88;21.42;;;;;;;10.31;100.00;100570.56;5226536;28;20104;-87
2021/05/15 05:53:08;;;;;;;53.67;22.10;;;;;;;10.30;100.00;100568.91;5226058;28;20086;-85
2021/05/15 05:55:38;;;;;;;49.78;21.45;;;;;;;10.42;100.00;100569.38;5226324;28;20047;-85
2021/05/15 05:58:09;;;;;;;54.60;22.52;;;;;;;10.48;100.00;100569.50;5226335;28;20499;-85
2021/05/15 06:00:39;;;;;;;53.13;22.00;;;;;;;10.58;100.00;100564.78;5225926;28;20427;-85
2021/05/15 06:03:10;;;;;;;52.58;22.25;;;;;;;10.75;100.00;100562.91;5225695;28;20025;-85
2021/05/15 06:05:40;;;;;;;66.63;26.80;;;;;;;10.80;100.00;100562.38;5225682;28;20024;-84
2021/05/15 06:08:11;;;;;;;63.95;25.45;;;;;;;10.92;100.00;100555.59;5224719;28;20526;-84
2021/05/15 06:10:42;;;;;;;55.60;22.52;;;;;;;11.15;100.00;100553.81;5224613;28;20108;-85
2021/05/15 06:13:14;;;;;;;60.83;24.40;;;;;;;11.38;100.00;100540.38;5224618;28;20111;-85
2021/05/15 06:15:45;;;;;;;65.03;26.85;;;;;;;11.15;100.00;100539.53;5224963;28;20471;-86
2021/05/15 06:18:15;;;;;;;63.90;28.05;;;;;;;11.46;100.00;100536.81;5225231;28;20043;-86
2021/05/15 06:20:47;;;;;;;63.58;28.75;;;;;;;11.50;100.00;100534.59;5224846;28;20021;-86
2021/05/15 06:23:17;;;;;;;74.03;30.15;;;;;;;11.48;100.00;100536.63;5225414;28;20029;-86
2021/05/15 06:25:49;;;;;;;72.95;31.40;;;;;;;11.50;100.00;100530.06;5227474;28;20034;-86
2021/05/15 06:28:20;;;;;;;65.20;30.63;;;;;;;11.54;100.00;100525.16;5210059;28;20032;-86
2021/05/15 06:30:51;;;;;;;71.68;30.38;;;;;;;11.82;100.00;100533.50;5226289;28;20056;-85
2021/05/15 06:33:21;;;;;;;65.70;31.08;;;;;;;12.52;100.00;100522.34;5218929;28;20453;-85
2021/05/15 06:35:52;;;;;;;60.15;29.70;;;;;;;12.92;100.00;100528.22;5221962;28;20032;-88
2021/05/15 06:38:22;;;;;;;55.85;29.70;;;;;;;12.84;100.00;100520.25;5227726;28;20088;-85
2021/05/15 06:40:53;;;;;;;69.10;32.72;;;;;;;12.32;100.00;100527.44;5219787;28;20028;-85
2021/05/15 06:43:23;;;;;;;62.70;31.08;;;;;;;12.34;100.00;100521.88;5228476;28;20056;-85
2021/05/15 06:45:54;;;;;;;60.65;29.42;;;;;;;12.02;100.00;100523.06;5229045;28;20111;-84
2021/05/15 06:48:24;;;;;;;60.10;29.23;;;;;;;12.00;100.00;100519.72;5225738;28;20108;-86
2021/05/15 06:50:55;;;;;;;59.08;27.83;;;;;;;12.08;100.00;100531.22;5225649;28;20033;-85
2021/05/15 06:53:25;;;;;;;58.15;28.00;;;;;;;11.85;100.00;100525.09;5225852;28;20021;-85
2021/05/15 06:55:55;;;;;;;53.95;26.73;;;;;;;11.57;100.00;100520.25;5225939;28;20037;-85
2021/05/15 06:58:26;;;;;;;47.35;25.15;;;;;;;11.50;100.00;100515.81;5228872;28;20060;-85
2021/05/15 07:00:56;;;;;;;49.97;25.02;;;;;;;11.62;100.00;100517.84;5227985;28;20025;-87
2021/05/15 07:03:29;;;;;;;51.85;25.83;;;;;;;11.63;100.00;100511.47;5251452;28;20040;-85
2021/05/15 07:05:59;;;;;;;57.45;27.98;;;;;;;11.60;100.00;100501.09;5237014;28;20033;-85
2021/05/15 07:08:29;;;;;;;53.72;26.25;;;;;;;11.80;100.00;100493.34;5243325;28;20083;-86
2021/05/15 07:11:00;;;;;;;54.35;27.00;;;;;;;11.65;100.00;100511.31;5243051;28;20484;-84
2021/05/15 07:13:30;;;;;;;54.30;26.30;;;;;;;11.64;100.00;100497.00;5241295;28;20070;-85
2021/05/15 07:16:01;;;;;;;48.25;24.98;;;;;;;11.70;100.00;100482.03;5236461;28;20055;-85
2021/05/15 07:18:31;;;;;;;42.17;20.85;;;;;;;11.97;100.00;100483.28;5236633;28;20115;-85
2021/05/15 07:21:02;;;;;;;39.42;21.25;;;;;;;11.95;100.00;100490.72;5234723;28;20370;-85
2021/05/15 07:23:32;;;;;;;38.28;20.50;;;;;;;11.97;100.00;100491.38;5235918;28;20037;-86
2021/05/15 07:26:05;;;;;;;39.33;20.27;;;;;;;12.03;100.00;100495.16;5237264;28;20043;-85
2021/05/15 07:28:35;;;;;;;37.63;19.05;;;;;;;12.19;100.00;100485.06;5242427;28;20048;-86
2021/05/15 07:31:06;;;;;;;31.67;16.60;;;;;;;12.26;100.00;100481.66;5224456;28;20025;-86
2021/05/15 07:33:37;;;;;;;32.88;18.15;;;;;;;12.43;100.00;100465.09;5241376;28;20025;-86
2021/05/15 07:36:07;;;;;;;28.30;15.02;;;;;;;12.55;100.00;100478.06;5240776;28;20124;-85
2021/05/15 07:38:40;;;;;;;26.52;16.25;;;;;;;12.52;100.00;100479.28;5236837;28;20043;-85
2021/05/15 07:41:10;;;;;;;25.98;14.45;;;;;;;12.53;100.00;100472.88;5238814;28;20009;-85
2021/05/15 07:43:43;;;;;;;29.10;15.48;;;;;;;12.75;100.00;100476.47;5235998;28;20032;-84
2021/05/15 07:46:15;;;;;;;25.42;13.93;;;;;;;12.50;100.00;100469.72;5239007;28;20033;-86
2021/05/15 07:48:47;;;;;;;23.48;13.10;;;;;;;12.68;100.00;100471.00;5240849;28;20091;-85
2021/05/15 07:51:21;;;;;;;22.80;13.32;;;;;;;12.87;100.00;100480.34;5237910;28;20058;-85
2021/05/15 07:53:53;;;;;;;23.92;12.73;;;;;;;12.84;100.00;100483.41;5234363;28;20058;-85
2021/05/15 07:56:24;;;;;;;24.63;12.88;;;;;;;12.67;100.00;100471.19;5235854;28;20029;-85
2021/05/15 07:58:55;;;;;;;24.15;13.10;;;;;;;12.40;100.00;100468.19;5235234;28;20040;-85
2021/05/15 08:01:25;;;;;;;20.70;13.13;;;;;;;12.49;100.00;100468.91;5233823;28;20032;-86
2021/05/15 08:03:56;;;;;;;24.17;13.00;;;;;;;12.40;100.00;100461.97;5235407;28;20030;-85
2021/05/15 08:06:26;;;;;;;23.73;13.07;;;;;;;12.24;100.00;100468.38;5234992;28;20478;-85
2021/05/15 08:08:57;;;;;;;24.27;12.32;;;;;;;12.25;100.00;100464.69;5235327;28;20040;-86
2021/05/15 08:11:28;;;;;;;22.80;13.30;;;;;;;12.10;100.00;100475.44;5235744;28;20033;-86
2021/05/15 08:13:59;;;;;;;31.23;13.45;;;;;;;11.84;100.00;100462.41;5232248;28;20029;-86
2021/05/15 08:16:29;;;;;;;26.80;12.63;;;;;;;11.64;100.00;100467.44;5229807;28;20025;-86
2021/05/15 08:19:00;;;;;;;27.98;12.60;;;;;;;11.44;100.00;100463.59;5227077;28;20480;-86
2021/05/15 08:21:31;;;;;;;22.90;12.63;;;;;;;11.55;100.00;100462.38;5226551;28;20070;-86
2021/05/15 08:24:02;;;;;;;27.23;13.02;;;;;;;11.37;100.00;100465.34;5227195;28;20024;-86
2021/05/15 08:26:33;;;;;;;23.65;13.27;;;;;;;11.17;100.00;100458.81;5226411;28;20033;-86
2021/05/15 08:29:06;;;;;;;27.48;14.13;;;;;;;11.05;100.00;100466.44;5227571;28;20028;-86
2021/05/15 08:31:37;;;;;;;24.92;12.35;;;;;;;10.89;100.00;100459.31;5226788;28;20469;-85
2021/05/15 08:34:08;;;;;;;28.63;14.30;;;;;;;10.89;100.00;100459.31;5226553;28;20355;-86
2021/05/15 08:36:39;;;;;;;31.88;13.95;;;;;;;11.05;100.00;100456.53;5229798;28;20025;-87
2021/05/15 08:39:10;;;;;;;28.13;13.27;;;;;;;11.23;100.00;100452.72;5227938;28;20025;-85
2021/05/15 08:41:41;;;;;;;27.30;13.57;;;;;;;11.38;100.00;100457.09;5226391;28;20388;-86
2021/05/15 08:44:13;;;;;;;26.58;13.10;;;;;;;11.48;100.00;100454.16;5225985;28;20025;-86
2021/05/15 08:46:44;;;;;;;24.00;13.52;;;;;;;11.57;100.00;100454.94;5226362;28;20032;-86
2021/05/15 08:49:20;;;;;;;21.30;11.57;;;;;;;11.66;100.00;100449.31;5226362;28;20083;-86
2021/05/15 08:51:53;;;;;;;;;;;;;;;12.14;100.00;100454.38;5227322;28;20084;-85
2021/05/15 08:54:24;;;;;;;16.85;9.80;;;;;;;12.13;100.00;100444.63;5235862;28;19931;-85
2021/05/15 08:56:54;;;;;;;19.70;10.05;;;;;;;12.25;100.00;100443.16;5237952;28;20021;-85
2021/05/15 08:59:25;;;;;;;17.35;9.20;;;;;;;12.03;100.00;100444.91;5239290;28;20067;-86
2021/05/15 09:01:56;;;;;;;16.75;8.20;;;;;;;12.10;100.00;100439.66;5234789;28;20426;-85
2021/05/15 09:04:26;;;;;;;14.13;8.77;;;;;;;12.30;100.00;100445.25;5234814;28;20028;-85
2021/05/15 09:06:57;;;;;;;18.50;9.10;;;;;;;12.62;100.00;100441.31;5225822;28;20048;-86
2021/05/15 09:09:27;;;;;;;12.40;7.68;;;;;;;12.67;100.00;100442.44;5225070;28;20049;-86
2021/05/15 09:11:58;;;;;;;15.45;8.48;;;;;;;12.78;100.00;100440.25;5208437;28;20033;-86
2021/05/15 09:14:28;;;;;;;12.63;7.10;;;;;;;12.43;100.00;100435.50;5229135;28;20480;-85
2021/05/15 09:17:00;;;;;;;16.83;7.47;;;;;;;12.88;100.00;100438.91;5232950;28;20025;-86
2021/05/15 09:19:31;;;;;;;17.02;7.93;;;;;;;13.08;100.00;100444.50;5234191;28;20035;-87
2021/05/15 09:22:04;;;;;;;11.65;7.40;;;;;;;13.05;100.00;100439.53;5234813;28;20029;-86
2021/05/15 09:24:39;;;;;;;18.23;6.63;;;;;;;13.12;100.00;100429.63;5230563;28;20079;-86
2021/05/15 09:27:12;;;;;;;13.48;5.80;;;;;;;13.34;100.00;100426.94;5233989;28;20021;-86
2021/05/15 09:29:47;;;;;;;14.32;6.93;;;;;;;13.36;100.00;100408.75;5234848;28;20024;-86
2021/05/15 09:32:31;;;;;;;14.35;6.57;;;;;;;13.52;100.00;100405.75;5228392;28;20056;-87
2021/05/15 09:35:03;;;;;;;13.60;6.20;;;;;;;13.87;100.00;100400.38;5231340;28;20037;-86
2021/05/15 09:37:37;;;;;;;11.27;5.70;;;;;;;14.10;100.00;100405.47;5233564;28;20025;-84
2021/05/15 09:40:23;;;;;;;10.95;5.75;;;;;;;13.86;100.00;100398.72;5232832;28;20021;-87
2021/05/15 09:42:57;;;;;;;13.02;6.07;;;;;;;13.66;100.00;100394.03;5227060;28;20263;-87
2021/05/15 09:45:29;;;;;;;10.93;5.65;;;;;;;13.78;100.00;100390.78;5226991;28;20087;-86
2021/05/15 09:48:03;;;;;;;12.20;5.85;;;;;;;14.17;100.00;100384.78;5225516;28;20289;-86
2021/05/15 09:50:36;;;;;;;9.00;5.85;;;;;;;14.03;100.00;100380.34;5227932;28;20107;-85
2021/05/15 09:53:12;;;;;;;9.82;5.35;;;;;;;14.38;100.00;100381.13;5235384;28;20036;-87
2021/05/15 09:55:49;;;;;;;11.07;6.47;;;;;;;14.61;100.00;100361.88;5235496;28;20032;-85
2021/05/15 09:58:20;;;;;;;9.82;5.05;;;;;;;15.16;100.00;100368.84;5237544;28;20048;-86
2021/05/15 10:00:51;;;;;;;9.77;4.90;;;;;;;15.49;100.00;100349.06;5237418;28;20028;-85
2021/05/15 10:03:23;;;;;;;9.88;4.55;;;;;;;14.97;100.00;100359.69;5232984;28;20035;-85
2021/05/15 10:06:07;;;;;;;7.38;4.00;;;;;;;14.62;100.00;100348.22;5232424;28;20033;-85
2021/05/15 10:08:40;;;;;;;7.45;3.97;;;;;;;14.67;100.00;100347.59;5223279;28;20032;-85
2021/05/15 10:11:10;;;;;;;6.28;4.20;;;;;;;14.47;100.00;100342.13;5223398;28;20067;-84
2021/05/15 10:13:42;;;;;;;8.65;3.78;;;;;;;14.62;100.00;100340.13;5222631;28;20053;-84
2021/05/15 10:16:13;;;;;;;10.63;4.07;;;;;;;15.23;100.00;100334.53;5223934;28;20067;-84
2021/05/15 10:18:43;;;;;;;9.48;3.90;;;;;;;15.47;100.00;100330.34;5223903;28;20045;-84
2021/05/15 10:21:14;;;;;;;8.40;3.85;;;;;;;15.86;100.00;100325.06;5223460;28;20044;-84
2021/05/15 10:23:45;;;;;;;8.38;3.53;;;;;;;15.91;100.00;100317.97;5223384;28;20500;-84
2021/05/15 10:26:20;;;;;;;6.40;3.10;;;;;;;15.81;100.00;100317.59;5223373;28;20028;-84
2021/05/15 10:29:04;;;;;;;11.23;3.55;;;;;;;15.40;100.00;100312.47;5223513;28;20322;-85
2021/05/15 10:31:36;;;;;;;7.22;3.58;;;;;;;15.18;100.00;100304.59;5224074;28;20754;-84
2021/05/15 10:34:09;;;;;;;8.20;3.03;;;;;;;15.11;100.00;100295.69;5228224;28;20117;-84
2021/05/15 10:36:46;;;;;;;7.43;2.92;;;;;;;14.53;100.00;100303.53;5227581;28;20029;-84
2021/05/15 10:39:29;;;;;;;7.63;3.88;;;;;;;14.07;100.00;100290.75;5227686;28;20290;-84
2021/05/15 10:42:02;;;;;;;10.07;3.35;;;;;;;14.04;100.00;100304.63;5231861;28;20032;-84
2021/05/15 10:44:41;;;;;;;9.48;3.17;;;;;;;13.60;100.00;100297.78;5243059;28;20036;-84
2021/05/15 10:47:12;;;;;;;8.30;2.33;;;;;;;13.37;100.00;100295.38;5228028;28;20116;-86
2021/05/15 10:49:45;;;;;;;9.60;2.38;;;;;;;13.06;100.00;100293.06;5227330;28;20396;-85
2021/05/15 10:52:17;;;;;;;5.40;3.15;;;;;;;13.20;100.00;100299.38;5226856;28;20543;-86
2021/05/15 10:54:59;;;;;;;9.65;2.53;;;;;;;13.00;100.00;100293.00;5228384;28;20036;-86
2021/05/15 10:57:31;;;;;;;6.07;2.10;;;;;;;13.04;100.00;100296.97;5226464;28;20369;-86
2021/05/15 11:00:08;;;;;;;10.50;2.28;;;;;;;13.02;100.00;100297.19;5233365;28;20029;-86
2021/05/15 11:02:39;;;;;;;10.20;2.20;;;;;;;12.89;100.00;100303.28;5226655;28;20032;-86
2021/05/15 11:05:12;;;;;;;4.60;1.80;;;;;;;12.76;100.00;100307.75;5227085;28;20052;-86
2021/05/15 11:07:43;;;;;;;7.32;2.15;;;;;;;12.55;100.00;100305.88;5214536;28;20029;-86
2021/05/15 11:10:17;;;;;;;5.28;1.48;;;;;;;12.23;100.00;100302.66;5227608;28;20423;-87
2021/05/15 11:12:52;;;;;;;8.07;2.15;;;;;;;12.14;100.00;100301.09;5226501;28;20072;-86
2021/05/15 11:15:27;;;;;;;3.55;1.80;;;;;;;12.13;100.00;100294.06;5226883;28;20039;-85
2021/05/15 11:18:05;;;;;;;3.85;2.08;;;;;;;12.58;100.00;100286.66;5227890;28;20058;-85
2021/05/15 11:20:42;;;;;;;10.45;2.38;;;;;;;12.98;100.00;100287.81;5226188;28;20071;-84
2021/05/15 11:23:17;;;;;;;4.75;2.10;;;;;;;13.56;100.00;100280.38;5228475;28;20067;-84
2021/05/15 11:25:58;;;;;;;4.30;1.50;;;;;;;14.04;100.00;100274.13;5228117;28;20717;-84
2021/05/15 11:28:30;;;;;;;4.60;1.70;;;;;;;14.44;100.00;100277.75;5227918;28;20047;-85